Gary Chicago International Airport Gary US
ICAO: KGYY
IATA: GYY
Category: Medium
Scheduled Services: No

Elevation: 591 ft
TransAlt. 18000 ft.

Airport Communications:
CHICAGO APP/DEP:133.1
ATIS:120.625
CTAF:125.6
GND:121.9
KANKAKEE RDO:114.2
TERRE HAUTE RDO:123.65
TWR:125.6

KGYY Zoom In..

Runways:

(A) RW 02 length 3603 ft width 100 ft
---- / hdg 23

(B) RW 12 length 7003 ft width 150 ft
---- / hdg 126

(C) RW 20 length 3603 ft width 100 ft
---- / hdg 203

(D) RW 30 length 7003 ft width 150 ft
ILS 108.75 / hdg 306

Location; KGYY
Day. 20 / Time. 16.45 Zulu
* Altimeter: 30.23
* Temperature: 07° c. 44.6°f.
* Wind from: 350° Speed 09 kn.
Dewpoint: 07° c.
Visibility: 10 Statute Miles.
Clouds: Overcast 600 ft.

KGYY 201645Z 35009KT 10SM OVC006 07/07 A3023


Wind From 350°
Speed 09 kn.

 
 
jpsmedia.com for Web Design SOUNDCLOUD worldairports.se 2018   terms of use